createdAt,value
2022-10-22T00:02:27.657Z,6.13
2022-10-22T00:04:54.583Z,6.60
2022-10-22T00:07:21.181Z,5.90
2022-10-22T00:09:47.819Z,6.75
2022-10-22T00:12:15.447Z,6.18
2022-10-22T00:14:42.575Z,6.18
2022-10-22T00:17:11.579Z,6.18
2022-10-22T00:19:38.897Z,6.20
2022-10-22T00:22:05.750Z,6.78
2022-10-22T00:24:33.849Z,6.18
2022-10-22T00:27:00.459Z,5.85
2022-10-22T00:29:26.819Z,6.28
2022-10-22T00:31:53.207Z,6.63
2022-10-22T00:34:21.346Z,6.53
2022-10-22T00:36:49.135Z,5.75
2022-10-22T00:39:17.454Z,6.40
2022-10-22T00:41:44.990Z,6.75
2022-10-22T00:44:48.964Z,7.35
2022-10-22T00:47:16.694Z,6.50
2022-10-22T00:49:44.225Z,5.95
2022-10-22T00:52:11.407Z,6.65
2022-10-22T00:54:38.674Z,6.40
2022-10-22T00:57:05.094Z,6.50
2022-10-22T00:59:31.765Z,6.40
2022-10-22T01:01:58.459Z,7.00
2022-10-22T01:04:24.925Z,6.22
2022-10-22T01:06:51.550Z,6.50
2022-10-22T01:09:42.483Z,6.85
2022-10-22T01:12:40.568Z,7.00
2022-10-22T01:15:23.078Z,7.18
2022-10-22T01:18:00.446Z,6.60
2022-10-22T01:20:51.193Z,7.55
2022-10-22T01:23:48.710Z,6.43
2022-10-22T01:26:36.253Z,6.93
2022-10-22T01:29:07.630Z,6.20
2022-10-22T01:31:39.611Z,7.25
2022-10-22T01:34:08.213Z,6.75
2022-10-22T01:36:37.341Z,6.32
2022-10-22T01:39:05.385Z,6.53
2022-10-22T01:41:31.908Z,6.43
2022-10-22T01:43:58.236Z,6.72
2022-10-22T01:46:26.857Z,6.53
2022-10-22T01:49:07.552Z,6.18
2022-10-22T01:52:11.560Z,6.03
2022-10-22T01:55:36.655Z,5.72
2022-10-22T01:58:14.951Z,6.10
2022-10-22T02:00:49.962Z,6.32
2022-10-22T02:03:26.669Z,6.20
2022-10-22T02:06:02.107Z,6.43
2022-10-22T02:08:32.230Z,5.97
2022-10-22T02:11:00.292Z,5.88
2022-10-22T02:13:32.031Z,5.97
2022-10-22T02:15:59.662Z,6.63
2022-10-22T02:18:30.229Z,6.05
2022-10-22T02:20:57.883Z,5.82
2022-10-22T02:23:24.516Z,6.00
2022-10-22T02:26:00.167Z,6.25
2022-10-22T02:28:37.548Z,6.10
2022-10-22T02:31:17.079Z,5.85
2022-10-22T02:33:48.038Z,6.07
2022-10-22T02:36:16.297Z,6.00
2022-10-22T02:38:43.250Z,5.45
2022-10-22T02:41:10.245Z,7.47
2022-10-22T02:43:44.858Z,6.85
2022-10-22T02:46:11.663Z,6.45
2022-10-22T02:48:38.219Z,6.00
2022-10-22T02:51:04.633Z,6.53
2022-10-22T02:53:31.142Z,6.40
2022-10-22T02:55:59.001Z,7.03
2022-10-22T02:58:25.348Z,6.75
2022-10-22T03:00:54.619Z,6.25
2022-10-22T03:03:21.550Z,6.45
2022-10-22T03:05:47.907Z,6.63
2022-10-22T03:08:14.259Z,6.05
2022-10-22T03:10:40.668Z,7.50
2022-10-22T03:13:07.039Z,7.10
2022-10-22T03:15:33.438Z,7.07
2022-10-22T03:17:59.801Z,6.53
2022-10-22T03:20:26.324Z,6.32
2022-10-22T03:22:52.821Z,5.90
2022-10-22T03:25:25.342Z,6.60
2022-10-22T03:27:54.268Z,5.60
2022-10-22T03:30:20.624Z,6.65
2022-10-22T03:32:46.972Z,6.13
2022-10-22T03:35:13.582Z,6.20
2022-10-22T03:37:40.771Z,6.55
2022-10-22T03:40:08.562Z,6.43
2022-10-22T03:42:35.323Z,6.35
2022-10-22T03:45:01.683Z,6.07
2022-10-22T03:47:28.073Z,6.15
2022-10-22T03:49:54.415Z,6.57
2022-10-22T03:52:20.746Z,6.03
2022-10-22T03:54:47.136Z,5.55
2022-10-22T03:57:13.620Z,6.00
2022-10-22T03:59:43.067Z,6.07
2022-10-22T04:02:10.807Z,6.30
2022-10-22T04:04:38.055Z,6.25
2022-10-22T04:07:06.562Z,6.10
2022-10-22T04:09:34.300Z,6.15
2022-10-22T04:12:03.723Z,6.25
2022-10-22T04:14:30.058Z,6.45
2022-10-22T04:16:56.385Z,5.53
2022-10-22T04:19:22.770Z,5.55
2022-10-22T04:21:49.317Z,6.00
2022-10-22T04:24:15.778Z,5.65
2022-10-22T04:26:42.347Z,5.13
2022-10-22T04:29:11.912Z,6.20
2022-10-22T04:31:41.520Z,5.45
2022-10-22T04:34:07.998Z,5.80
2022-10-22T04:36:34.514Z,5.88
2022-10-22T04:39:01.401Z,6.32
2022-10-22T04:41:30.887Z,6.40
2022-10-22T04:43:57.972Z,6.68
2022-10-22T04:46:26.177Z,5.57
2022-10-22T04:48:53.147Z,5.72
2022-10-22T04:51:21.809Z,6.13
2022-10-22T04:53:48.563Z,6.03
2022-10-22T04:56:26.847Z,5.30
2022-10-22T04:59:07.080Z,5.65
2022-10-22T05:01:40.021Z,5.47
2022-10-22T05:06:38.339Z,4.90
2022-10-22T05:09:08.445Z,6.65
2022-10-22T05:11:37.843Z,6.85
2022-10-22T05:14:06.087Z,7.97
2022-10-22T05:16:34.086Z,7.38
2022-10-22T05:19:02.013Z,6.38
2022-10-22T05:21:28.897Z,7.93
2022-10-22T05:23:59.798Z,6.65
2022-10-22T05:26:28.099Z,7.05
2022-10-22T05:28:54.910Z,6.68
2022-10-22T05:31:21.326Z,6.95
2022-10-22T05:33:47.671Z,6.95
2022-10-22T05:36:17.684Z,6.80
2022-10-22T05:38:44.029Z,6.25
2022-10-22T05:41:16.237Z,6.15
2022-10-22T05:43:42.664Z,6.13
2022-10-22T05:46:11.938Z,6.22
2022-10-22T05:48:38.940Z,6.13
2022-10-22T05:51:10.659Z,6.22
2022-10-22T05:53:40.054Z,5.85
2022-10-22T05:56:09.229Z,6.30
2022-10-22T05:58:36.399Z,6.15
2022-10-22T06:01:15.225Z,6.43
2022-10-22T06:03:42.518Z,6.65
2022-10-22T06:06:20.543Z,6.05
2022-10-22T06:08:51.797Z,6.05
2022-10-22T06:11:20.162Z,6.05
2022-10-22T06:13:47.699Z,6.07
2022-10-22T06:16:14.606Z,6.00
2022-10-22T06:18:41.250Z,6.53
2022-10-22T06:21:10.856Z,6.22
2022-10-22T06:23:38.441Z,5.75
2022-10-22T06:26:05.619Z,6.40
2022-10-22T06:28:32.798Z,5.60
2022-10-22T06:31:00.946Z,6.35
2022-10-22T06:33:28.863Z,6.10
2022-10-22T06:35:55.491Z,6.00
2022-10-22T06:38:22.186Z,5.63
2022-10-22T06:40:48.545Z,5.82
2022-10-22T06:43:15.059Z,6.18
2022-10-22T06:45:41.514Z,5.78
2022-10-22T06:48:07.924Z,5.70
2022-10-22T06:50:35.019Z,5.63
2022-10-22T06:53:01.548Z,6.07
2022-10-22T06:55:28.120Z,5.68
2022-10-22T06:57:55.585Z,5.28
2022-10-22T07:00:22.377Z,5.43
2022-10-22T07:02:56.462Z,5.63
2022-10-22T07:05:25.467Z,4.93
2022-10-22T07:07:51.811Z,5.82
2022-10-22T07:10:18.338Z,5.30
2022-10-22T07:12:44.663Z,5.50
2022-10-22T07:15:11.483Z,5.95
2022-10-22T07:20:10.209Z,5.30
2022-10-22T07:22:36.596Z,4.70
2022-10-22T07:25:06.579Z,5.25
2022-10-22T07:27:33.898Z,4.97
2022-10-22T07:30:01.364Z,5.00
2022-10-22T07:32:28.047Z,5.05
2022-10-22T07:34:54.595Z,4.97
2022-10-22T07:37:22.081Z,4.53
2022-10-22T07:39:49.366Z,4.57
2022-10-22T07:42:16.166Z,4.70
2022-10-22T07:44:42.542Z,4.78
2022-10-22T07:47:08.910Z,4.63
2022-10-22T07:49:35.282Z,4.78
2022-10-22T07:52:01.776Z,4.30
2022-10-22T07:54:28.213Z,4.90
2022-10-22T07:56:54.614Z,4.78
2022-10-22T07:59:21.001Z,4.40
2022-10-22T08:01:47.442Z,4.65
2022-10-22T08:04:13.883Z,4.28
2022-10-22T08:06:42.528Z,4.45
2022-10-22T08:09:12.089Z,5.07
2022-10-22T08:11:39.046Z,4.35
2022-10-22T08:14:05.573Z,5.03
2022-10-22T08:16:32.058Z,4.50
2022-10-22T08:18:58.468Z,4.10
2022-10-22T08:21:25.022Z,4.10
2022-10-22T08:23:51.447Z,4.80
2022-10-22T08:26:18.192Z,4.93
2022-10-22T08:28:44.619Z,4.65
2022-10-22T08:31:11.534Z,4.40
2022-10-22T08:33:38.985Z,3.80
2022-10-22T08:36:05.691Z,4.28
2022-10-22T08:38:32.054Z,4.63
2022-10-22T08:41:18.159Z,5.03
2022-10-22T08:44:03.230Z,4.65
2022-10-22T08:47:11.271Z,4.68
2022-10-22T08:49:42.308Z,4.43
2022-10-22T08:52:14.451Z,4.47
2022-10-22T08:54:58.717Z,4.38
2022-10-22T08:57:58.251Z,4.32
2022-10-22T09:00:50.988Z,4.25
2022-10-22T09:03:36.613Z,4.32
2022-10-22T09:06:13.606Z,4.65
2022-10-22T09:08:42.531Z,3.80
2022-10-22T09:11:23.913Z,4.18
2022-10-22T09:13:51.698Z,4.43
2022-10-22T09:16:19.610Z,4.47
2022-10-22T09:18:59.564Z,4.55
2022-10-22T09:21:41.450Z,4.45
2022-10-22T09:24:10.765Z,3.85
2022-10-22T09:26:39.689Z,4.03
2022-10-22T09:29:07.028Z,4.22
2022-10-22T09:31:34.643Z,4.05
2022-10-22T09:34:06.019Z,3.92
2022-10-22T09:36:32.775Z,2.97
2022-10-22T09:38:59.664Z,3.00
2022-10-22T09:41:32.154Z,3.70
2022-10-22T09:43:59.222Z,3.05
2022-10-22T09:46:29.741Z,3.95
2022-10-22T09:49:10.474Z,3.05
2022-10-22T09:51:51.812Z,2.95
2022-10-22T09:54:19.913Z,3.10
2022-10-22T09:57:14.055Z,3.28
2022-10-22T09:59:43.087Z,3.13
2022-10-22T10:02:19.940Z,2.50
2022-10-22T10:04:56.202Z,2.35
2022-10-22T10:07:25.736Z,2.40
2022-10-22T10:09:54.095Z,2.38
2022-10-22T10:12:43.998Z,2.80
2022-10-22T10:15:20.483Z,2.60
2022-10-22T10:17:57.073Z,2.10
2022-10-22T10:20:35.428Z,2.63
2022-10-22T10:23:46.759Z,2.30
2022-10-22T10:26:20.127Z,2.38
2022-10-22T10:29:12.763Z,2.40
2022-10-22T10:31:52.990Z,2.55
2022-10-22T10:34:33.994Z,2.33
2022-10-22T10:37:19.161Z,2.45
2022-10-22T10:40:14.771Z,2.40
2022-10-22T10:42:51.527Z,2.65
2022-10-22T10:45:55.487Z,2.17
2022-10-22T10:49:03.476Z,2.00
2022-10-22T10:52:00.931Z,1.92
2022-10-22T10:55:08.820Z,2.30
2022-10-22T10:57:46.568Z,2.40
2022-10-22T11:00:20.037Z,2.13
2022-10-22T11:03:16.044Z,2.15
2022-10-22T11:05:58.261Z,1.90
2022-10-22T11:08:35.792Z,2.58
2022-10-22T11:11:23.878Z,2.03
2022-10-22T11:14:19.501Z,2.33
2022-10-22T11:17:13.968Z,2.10
2022-10-22T11:20:11.362Z,2.30
2022-10-22T11:23:18.081Z,2.00
2022-10-22T11:25:48.378Z,2.40
2022-10-22T11:28:30.547Z,2.40
2022-10-22T11:31:10.859Z,2.05
2022-10-22T11:33:50.684Z,2.20
2022-10-22T11:36:20.338Z,2.40
2022-10-22T11:38:46.797Z,2.33
2022-10-22T11:41:17.060Z,1.92
2022-10-22T11:44:09.531Z,2.45
2022-10-22T11:46:58.113Z,2.35
2022-10-22T11:49:42.591Z,2.30
2022-10-22T11:52:31.460Z,2.22
2022-10-22T11:55:02.307Z,1.77
2022-10-22T11:57:37.486Z,1.80
2022-10-22T12:00:31.349Z,1.88
2022-10-22T12:03:17.431Z,2.22
2022-10-22T12:05:45.539Z,2.30
2022-10-22T12:08:22.848Z,1.85
2022-10-22T12:10:57.336Z,1.77
2022-10-22T12:13:27.809Z,2.00
2022-10-22T12:15:58.426Z,2.22
2022-10-22T12:18:41.220Z,1.55
2022-10-22T12:21:13.708Z,1.85
2022-10-22T12:23:40.447Z,1.70
2022-10-22T12:26:21.846Z,1.95
2022-10-22T12:28:48.227Z,1.88
2022-10-22T12:31:18.085Z,1.80
2022-10-22T12:33:44.685Z,1.83
2022-10-22T12:36:18.041Z,1.67
2022-10-22T12:38:47.471Z,2.10
2022-10-22T12:41:14.124Z,1.75
2022-10-22T12:43:40.672Z,1.65
2022-10-22T12:46:15.082Z,2.00
2022-10-22T12:48:44.141Z,2.20
2022-10-22T12:51:17.927Z,2.15
2022-10-22T12:53:50.714Z,1.85
2022-10-22T12:56:29.965Z,2.20
2022-10-22T12:59:03.065Z,1.92
2022-10-22T13:01:35.962Z,2.30
2022-10-22T13:04:22.837Z,1.70
2022-10-22T13:06:52.479Z,2.10
2022-10-22T13:09:27.443Z,1.98
2022-10-22T13:12:04.576Z,1.63
2022-10-22T13:14:34.151Z,2.00
2022-10-22T13:17:11.617Z,2.20
2022-10-22T13:19:53.218Z,2.13
2022-10-22T13:22:30.970Z,1.83
2022-10-22T13:25:13.709Z,2.00
2022-10-22T13:27:45.043Z,2.42
2022-10-22T13:30:20.153Z,1.75
2022-10-22T13:32:51.896Z,2.03
2022-10-22T13:35:21.741Z,2.20
2022-10-22T13:37:48.058Z,2.15
2022-10-22T13:40:14.872Z,2.03
2022-10-22T13:42:41.532Z,2.10
2022-10-22T13:45:08.451Z,1.85
2022-10-22T13:47:34.838Z,1.92
2022-10-22T13:50:12.718Z,1.83
2022-10-22T13:52:43.240Z,2.17
2022-10-22T13:55:18.447Z,1.52
2022-10-22T13:57:45.626Z,1.77
2022-10-22T14:00:14.587Z,1.83
2022-10-22T14:02:42.167Z,1.50
2022-10-22T14:05:11.105Z,1.77
2022-10-22T14:07:38.853Z,1.65
2022-10-22T14:10:20.031Z,1.80
2022-10-22T14:12:52.311Z,1.88
2022-10-22T14:15:23.711Z,1.90
2022-10-22T14:17:56.151Z,1.77
2022-10-22T14:20:29.006Z,1.70
2022-10-22T14:23:11.709Z,1.98
2022-10-22T14:25:38.082Z,1.67
2022-10-22T14:28:04.587Z,1.63
2022-10-22T14:30:32.789Z,2.13
2022-10-22T14:32:59.331Z,1.80
2022-10-22T14:35:25.870Z,1.70
2022-10-22T14:37:52.286Z,2.05
2022-10-22T14:40:20.911Z,1.67
2022-10-22T14:42:48.964Z,1.75
2022-10-22T14:45:25.291Z,1.88
2022-10-22T14:47:54.773Z,2.00
2022-10-22T14:50:21.660Z,2.00
2022-10-22T14:52:48.537Z,1.80
2022-10-22T14:55:16.626Z,1.63
2022-10-22T14:57:43.706Z,2.17
2022-10-22T15:00:16.154Z,2.20
2022-10-22T15:02:43.090Z,1.70
2022-10-22T15:05:10.155Z,1.70
2022-10-22T15:07:37.100Z,2.10
2022-10-22T15:10:04.565Z,1.95
2022-10-22T15:12:30.927Z,1.60
2022-10-22T15:14:57.534Z,1.73
2022-10-22T15:17:24.084Z,1.85
2022-10-22T15:19:50.447Z,1.80
2022-10-22T15:22:17.315Z,1.63
2022-10-22T15:24:44.692Z,1.73
2022-10-22T15:27:15.045Z,1.63
2022-10-22T15:29:42.618Z,1.25
2022-10-22T15:32:12.676Z,1.67
2022-10-22T15:34:39.874Z,1.60
2022-10-22T15:37:09.013Z,1.80
2022-10-22T15:39:36.068Z,1.80
2022-10-22T15:42:02.450Z,1.45
2022-10-22T15:44:31.135Z,1.70
2022-10-22T15:46:58.326Z,1.52
2022-10-22T15:49:26.635Z,1.83
2022-10-22T15:51:53.514Z,1.60
2022-10-22T15:54:25.273Z,2.13
2022-10-22T15:56:51.887Z,1.48
2022-10-22T15:59:18.388Z,1.73
2022-10-22T16:01:44.859Z,2.10
2022-10-22T16:04:11.820Z,1.90
2022-10-22T16:06:43.387Z,2.17
2022-10-22T16:09:12.623Z,1.63
2022-10-22T16:11:40.184Z,1.88
2022-10-22T16:14:07.248Z,1.80
2022-10-22T16:16:36.465Z,1.95
2022-10-22T16:19:03.239Z,2.00
2022-10-22T16:21:29.690Z,2.25
2022-10-22T16:23:56.050Z,1.95
2022-10-22T16:26:22.453Z,2.35
2022-10-22T16:28:49.151Z,2.22
2022-10-22T16:31:17.916Z,2.47
2022-10-22T16:33:46.487Z,2.85
2022-10-22T16:36:17.993Z,3.75
2022-10-22T16:38:45.235Z,3.65
2022-10-22T16:41:14.333Z,3.03
2022-10-22T16:43:42.042Z,2.78
2022-10-22T16:46:09.138Z,2.88
2022-10-22T16:48:37.753Z,3.38
2022-10-22T16:51:08.866Z,3.08
2022-10-22T16:53:35.915Z,3.33
2022-10-22T16:56:02.754Z,3.47
2022-10-22T16:58:29.725Z,3.30
2022-10-22T17:00:56.078Z,3.25
2022-10-22T17:03:24.556Z,3.20
2022-10-22T17:05:53.857Z,3.20
2022-10-22T17:08:20.244Z,3.50
2022-10-22T17:10:46.816Z,4.30
2022-10-22T17:13:13.139Z,4.13
2022-10-22T17:15:40.383Z,4.40
2022-10-22T17:18:06.959Z,4.13
2022-10-22T17:20:33.358Z,5.10
2022-10-22T17:22:59.688Z,6.47
2022-10-22T17:25:36.998Z,10.32
2022-10-22T17:28:03.380Z,10.70
2022-10-22T17:30:30.310Z,8.95
2022-10-22T17:32:56.804Z,8.52
2022-10-22T17:35:23.198Z,8.43
2022-10-22T17:37:49.583Z,7.53
2022-10-22T17:40:16.175Z,7.55
2022-10-22T17:42:42.794Z,6.38
2022-10-22T17:45:09.538Z,6.43
2022-10-22T17:47:36.331Z,6.80
2022-10-22T17:50:02.675Z,7.07
2022-10-22T17:52:29.000Z,9.25
2022-10-22T17:54:55.450Z,10.77
2022-10-22T17:57:21.787Z,16.40
2022-10-22T17:59:48.178Z,16.38
2022-10-22T18:02:16.917Z,17.35
2022-10-22T18:04:43.706Z,16.25
2022-10-22T18:07:10.075Z,16.25
2022-10-22T18:09:36.546Z,16.33
2022-10-22T18:12:03.011Z,15.07
2022-10-22T18:14:29.595Z,14.48
2022-10-22T18:16:55.978Z,14.70
2022-10-22T18:19:24.389Z,20.05
2022-10-22T18:21:50.808Z,22.13
2022-10-22T18:24:18.005Z,18.85
2022-10-22T18:26:44.397Z,16.80
2022-10-22T18:29:15.591Z,12.70
2022-10-22T18:31:41.959Z,12.07
2022-10-22T18:34:08.390Z,10.88
2022-10-22T18:36:34.748Z,9.40
2022-10-22T18:39:02.154Z,9.82
2022-10-22T18:41:29.926Z,9.10
2022-10-22T18:44:01.599Z,11.48
2022-10-22T18:46:29.666Z,11.40
2022-10-22T18:48:57.361Z,10.77
2022-10-22T18:51:30.768Z,11.57
2022-10-22T18:54:06.028Z,10.40
2022-10-22T18:56:43.821Z,8.25
2022-10-22T18:59:18.659Z,7.97
2022-10-22T19:01:45.000Z,9.10
2022-10-22T19:04:13.423Z,7.65
2022-10-22T19:06:44.330Z,7.28
2022-10-22T19:09:13.500Z,7.30
2022-10-22T19:11:39.990Z,7.28
2022-10-22T19:14:06.550Z,6.95
2022-10-22T19:16:34.688Z,5.70
2022-10-22T19:19:03.602Z,7.40
2022-10-22T19:21:30.264Z,7.18
2022-10-22T19:23:57.774Z,7.60
2022-10-22T19:26:26.418Z,9.00
2022-10-22T19:28:54.254Z,11.82
2022-10-22T19:31:23.146Z,9.85
2022-10-22T19:33:51.127Z,9.90
2022-10-22T19:36:19.272Z,10.98
2022-10-22T19:38:48.905Z,11.00
2022-10-22T19:41:20.002Z,12.00
2022-10-22T19:43:49.337Z,10.30
2022-10-22T19:46:15.992Z,9.85
2022-10-22T19:48:42.449Z,9.45
2022-10-22T19:51:14.383Z,8.23
2022-10-22T19:53:41.083Z,8.68
2022-10-22T19:56:09.732Z,8.63
2022-10-22T19:58:37.213Z,8.13
2022-10-22T20:01:11.787Z,8.05
2022-10-22T20:03:39.184Z,7.20
2022-10-22T20:06:07.925Z,7.88
2022-10-22T20:08:37.800Z,7.10
2022-10-22T20:11:07.062Z,5.93
2022-10-22T20:13:35.049Z,5.40
2022-10-22T20:16:01.531Z,5.50
2022-10-22T20:18:27.951Z,6.10
2022-10-22T20:20:54.319Z,9.75
2022-10-22T20:23:20.848Z,7.25
2022-10-22T20:25:47.874Z,8.68
2022-10-22T20:28:15.495Z,9.90
2022-10-22T20:30:45.644Z,9.93
2022-10-22T20:33:12.792Z,8.50
2022-10-22T20:35:39.716Z,10.70
2022-10-22T20:38:08.047Z,16.77
2022-10-22T20:40:34.703Z,15.95
2022-10-22T20:43:01.755Z,16.05
2022-10-22T20:45:28.942Z,12.23
2022-10-22T20:48:02.789Z,10.82
2022-10-22T20:50:32.096Z,10.10
2022-10-22T20:52:59.500Z,9.05
2022-10-22T20:55:26.856Z,7.47
2022-10-22T20:57:53.606Z,8.30
2022-10-22T21:00:20.028Z,8.25
2022-10-22T21:02:46.663Z,7.47
2022-10-22T21:05:13.069Z,7.82
2022-10-22T21:07:39.692Z,7.25
2022-10-22T21:10:06.705Z,6.57
2022-10-22T21:12:33.212Z,6.57
2022-10-22T21:14:59.544Z,6.20
2022-10-22T21:17:25.974Z,6.10
2022-10-22T21:19:52.332Z,5.80
2022-10-22T21:22:18.659Z,6.32
2022-10-22T21:24:45.006Z,5.90
2022-10-22T21:27:11.487Z,6.10
2022-10-22T21:29:37.850Z,5.70
2022-10-22T21:32:04.264Z,5.28
2022-10-22T21:34:34.237Z,5.40
2022-10-22T21:37:02.998Z,5.88
2022-10-22T21:39:30.361Z,5.40
2022-10-22T21:41:56.831Z,7.18
2022-10-22T21:44:23.171Z,6.75
2022-10-22T21:46:49.509Z,6.70
2022-10-22T21:49:15.898Z,7.65
2022-10-22T21:51:42.827Z,7.00
2022-10-22T21:54:09.160Z,7.00
2022-10-22T21:56:36.534Z,7.32
2022-10-22T21:59:04.517Z,6.53
2022-10-22T22:01:30.918Z,6.05
2022-10-22T22:03:57.969Z,6.15
2022-10-22T22:06:29.504Z,5.93
2022-10-22T22:08:57.531Z,6.38
2022-10-22T22:11:25.995Z,5.80
2022-10-22T22:13:57.540Z,5.72
2022-10-22T22:16:29.738Z,5.70
2022-10-22T22:19:06.526Z,6.57
2022-10-22T22:21:35.162Z,6.35
2022-10-22T22:24:01.853Z,6.35
2022-10-22T22:26:30.032Z,5.65
2022-10-22T22:28:58.448Z,6.55
2022-10-22T22:31:27.667Z,6.15
2022-10-22T22:34:00.171Z,6.40
2022-10-22T22:36:26.499Z,5.57
2022-10-22T22:38:56.877Z,5.47
2022-10-22T22:41:23.601Z,5.35
2022-10-22T22:43:50.007Z,5.43
2022-10-22T22:46:16.395Z,5.30
2022-10-22T22:48:42.815Z,5.40
2022-10-22T22:51:10.134Z,5.25
2022-10-22T22:53:36.490Z,5.35
2022-10-22T22:56:07.197Z,5.35
2022-10-22T22:58:34.769Z,5.45
2022-10-22T23:01:21.897Z,5.43
2022-10-22T23:03:53.904Z,5.25
2022-10-22T23:06:20.336Z,4.82
2022-10-22T23:08:50.114Z,4.97
2022-10-22T23:11:16.717Z,5.35
2022-10-22T23:13:43.900Z,5.18
2022-10-22T23:16:15.841Z,5.10
2022-10-22T23:18:43.072Z,5.25
2022-10-22T23:21:13.568Z,5.32
2022-10-22T23:23:43.677Z,5.22
2022-10-22T23:26:12.213Z,5.22
2022-10-22T23:28:38.836Z,5.75
2022-10-22T23:31:06.563Z,4.88
2022-10-22T23:33:33.226Z,5.38
2022-10-22T23:36:02.530Z,4.80
2022-10-22T23:38:28.878Z,4.38
2022-10-22T23:40:56.901Z,5.07
2022-10-22T23:43:27.366Z,4.50
2022-10-22T23:45:54.814Z,4.93
2022-10-22T23:48:22.165Z,4.72
2022-10-22T23:50:49.094Z,5.07
2022-10-22T23:53:15.653Z,5.35
2022-10-22T23:55:43.380Z,4.95
2022-10-22T23:58:10.787Z,5.45
